map of SLH home
Great Circle Mapper logo
SLH - Airport
Location
City:  Sola, Vanua Lava Island, Banks Islands, Torba, Vanuatu
ICAO / IATA:NVSC / SLH

Details
Type:Airport (Aerodrome, Airfield)
Latitude:1351'06"S (-13.851666)
Longitude:16732'13"E (167.536944)
Elevation:7 ft (2 m)
Variation:10.56E (WMM2015 magnetic declination)
0.03 annual change
Runways:unknown number
Longest:2297 ft (700 m)

Time
Time Zone:UTC+11
Local Time:

Weather
METAR:NVSC 270300Z 00000KT 9999 BKN020 FEW025CB 32/27 Q1001 RMK HZ
TAF:NVSC 271600Z 2718/2818 VRB02KT 9999 -SHRA SCT020 BKN040 OVC100 INTER 2718/2724 7000 TSRA BKN018 FEW025CB OVC098

Related Locations
Nearby:
Farthest:NIK: 12373 mi / 19913 km
Niokolo-Koba, SN

Find:

   beyond  
but within

Other Information
Maps:
NOTAMs:
Links:
Sources:

  
flag of Vanuatu   

Sectional Chart

Flight Planning
at skyvector.com

Satellite Image

Google Maps Satellite View

 

Copyright © 2004-2015 Karl L. Swartz. All rights reserved.
The Great Circle Mapper name and logo are trademarks of the Great Circle Mapper.
All other trademarks mentioned herein belong to their respective owners.
Please see credits for attibutions and further copyright information.

  Follow gcmap on Facebook Follow gcmap on Twitter

hCard Microformat

Geo Microformat